Time;durP1;ratioP1;P1;durP2;ratioP2;P2;SDS_P1;SDS_P2;PMS_P1;PMS_P2;Temp;Humidity;BMP_temperature;BMP_pressure;BME280_temperature;BME280_humidity;BME280_pressure;Samples;Min_cycle;Max_cycle;Signal;HPM_P1;HPM_P2
2023/04/24 00:15:12;;;;;;;50.20;32.80;;;;;;;11.47;64.41;97723.65;436588;1252;107981;-42
2023/04/24 00:25:19;;;;;;;47.20;30.70;;;;;;;11.46;64.71;97720.83;436518;1252;97486;-42
2023/04/24 00:35:27;;;;;;;44.70;26.60;;;;;;;11.45;65.31;97714.74;436430;1252;109713;-42
2023/04/24 00:45:32;;;;;;;42.40;25.20;;;;;;;11.43;65.62;97699.02;436659;1248;108537;-40
2023/04/24 00:55:40;;;;;;;35.80;24.50;;;;;;;11.36;65.91;97693.04;436437;1254;98479;-44
2023/04/24 01:05:48;;;;;;;37.20;23.50;;;;;;;11.32;66.16;97688.52;436649;1252;109552;-42
2023/04/24 01:15:55;;;;;;;32.80;21.00;;;;;;;11.41;66.22;97680.16;436567;1252;107003;-41
2023/04/24 01:26:03;;;;;;;32.10;21.20;;;;;;;11.56;66.26;97668.26;436494;1254;97882;-40
2023/04/24 01:36:07;;;;;;;36.30;21.50;;;;;;;11.57;66.15;97666.02;438104;1251;110430;-42
2023/04/24 01:46:16;;;;;;;36.80;22.40;;;;;;;11.53;66.06;97656.21;438061;1244;109011;-42
2023/04/24 01:56:24;;;;;;;35.20;22.20;;;;;;;11.45;65.82;97646.55;437997;1259;97601;-42
2023/04/24 02:16:38;;;;;;;38.20;22.10;;;;;;;11.23;65.93;97634.39;438253;1250;107651;-41
2023/04/24 02:26:45;;;;;;;35.20;24.60;;;;;;;11.04;66.06;97624.40;438100;1258;97926;-42
2023/04/24 02:46:59;;;;;;;39.60;25.00;;;;;;;10.65;66.32;97612.38;437829;1259;107596;-41
2023/04/24 02:57:07;;;;;;;38.40;23.60;;;;;;;10.50;66.37;97614.17;437992;1249;96641;-42
2023/04/24 03:17:21;;;;;;;43.60;26.30;;;;;;;10.23;67.43;97615.92;437934;1244;97833;-40
2023/04/24 03:27:28;;;;;;;41.10;25.90;;;;;;;10.20;67.52;97615.35;437975;1244;109465;-41
2023/04/24 03:37:35;;;;;;;39.80;25.00;;;;;;;10.11;67.58;97614.09;437786;1249;107459;-41
2023/04/24 03:57:48;;;;;;;43.30;25.10;;;;;;;10.19;67.35;97616.81;438045;1244;108708;-41
2023/04/24 04:07:56;;;;;;;40.10;26.70;;;;;;;10.18;67.36;97613.73;437945;1244;97893;-41
2023/04/24 04:18:03;;;;;;;51.70;24.40;;;;;;;10.25;67.40;97614.31;438101;1251;109873;-42
2023/04/24 04:28:10;;;;;;;37.10;21.70;;;;;;;10.39;67.19;97613.56;438124;1244;107460;-42
2023/04/24 04:48:23;;;;;;;35.60;21.40;;;;;;;10.76;66.68;97609.32;437996;1244;110415;-41
2023/04/24 04:58:31;;;;;;;40.20;24.80;;;;;;;10.81;66.44;97608.18;437993;1245;108651;-42
2023/04/24 05:08:38;;;;;;;46.00;27.50;;;;;;;10.82;66.20;97610.57;437923;1250;97454;-42
2023/04/24 05:18:45;;;;;;;38.20;25.00;;;;;;;11.07;66.40;97604.03;438004;1247;110711;-40
2023/04/24 05:28:53;;;;;;;41.70;23.90;;;;;;;12.19;66.02;97604.21;438110;1244;107530;-42
2023/04/24 05:39:00;;;;;;;35.30;20.50;;;;;;;13.49;64.38;97599.30;437862;1244;97287;-41
2023/04/24 05:49:08;;;;;;;29.10;16.50;;;;;;;15.15;62.78;97592.63;438033;1251;110672;-40
2023/04/24 05:59:15;;;;;;;35.80;17.70;;;;;;;16.49;59.32;97580.45;437762;1244;108410;-42
2023/04/24 06:09:22;;;;;;;20.70;13.90;;;;;;;17.38;56.76;97576.75;438197;1245;97429;-41
2023/04/24 06:19:29;;;;;;;24.20;13.00;;;;;;;17.76;53.79;97574.17;438093;1244;108556;-41
2023/04/24 06:29:38;;;;;;;23.00;11.90;;;;;;;18.20;52.69;97572.42;437901;1250;107426;-42
2023/04/24 06:39:45;;;;;;;24.70;12.10;;;;;;;18.82;50.96;97567.49;438120;1250;97865;-42
2023/04/24 06:49:53;;;;;;;18.70;11.40;;;;;;;19.89;50.78;97557.85;438190;1249;111328;-41
2023/04/24 07:00:00;;;;;;;17.70;10.50;;;;;;;20.36;49.60;97558.45;438139;1246;108589;-42
2023/04/24 07:10:09;;;;;;;154.40;18.00;;;;;;;20.91;48.60;97558.45;437968;1244;97899;-41
2023/04/24 07:20:17;;;;;;;14.10;7.50;;;;;;;21.47;47.51;97552.98;438076;1249;110471;-42
2023/04/24 07:30:23;;;;;;;;;;;;;;;21.91;45.30;97542.40;438098;1249;108144;-43
2023/04/24 07:40:30;;;;;;;45.20;8.10;;;;;;;22.13;44.16;97544.98;437969;1244;97867;-41
2023/04/24 07:50:37;;;;;;;12.50;5.80;;;;;;;21.96;41.55;97535.14;438080;1244;110304;-42
2023/04/24 08:00:45;;;;;;;9.30;5.10;;;;;;;21.93;39.34;97533.88;438117;1249;107519;-43
2023/04/24 08:10:53;;;;;;;7.50;4.80;;;;;;;22.22;38.94;97532.36;438017;1244;97874;-43
2023/04/24 08:31:06;;;;;;;10.80;5.90;;;;;;;22.42;37.74;97527.81;437985;1244;108229;-41
2023/04/24 08:41:15;;;;;;;9.20;6.10;;;;;;;22.67;38.05;97523.66;437982;1249;97888;-40
2023/04/24 08:51:23;;;;;;;8.40;5.80;;;;;;;23.14;37.80;97515.09;437998;1249;110589;-41
2023/04/24 09:01:33;;;;;;;9.70;5.00;;;;;;;23.47;36.93;97500.02;438094;1244;107424;-42
2023/04/24 09:11:40;;;;;;;13.10;5.30;;;;;;;22.73;34.59;97506.23;438141;1244;96621;-41
2023/04/24 09:21:46;;;;;;;10.90;4.50;;;;;;;22.71;34.81;97504.94;438063;1244;109991;-41
2023/04/24 09:31:53;;;;;;;5.50;4.10;;;;;;;23.58;35.56;97486.66;437967;1244;107782;-42
2023/04/24 09:42:03;;;;;;;7.70;4.40;;;;;;;23.49;34.37;97475.84;438105;1246;97919;-40
2023/04/24 09:52:12;;;;;;;8.50;4.90;;;;;;;23.61;34.06;97464.92;438233;1249;110313;-41
2023/04/24 10:02:21;;;;;;;7.10;5.80;;;;;;;23.83;33.46;97461.45;438124;1244;108721;-43
2023/04/24 10:12:30;;;;;;;8.30;4.60;;;;;;;23.53;31.67;97448.66;437864;1249;533574;-39
2023/04/24 10:22:39;;;;;;;7.40;5.00;;;;;;;23.51;30.82;97441.66;438119;1249;111316;-42
2023/04/24 10:32:46;;;;;;;6.60;4.80;;;;;;;23.46;30.22;97438.35;438010;1249;107081;-43
2023/04/24 10:42:54;;;;;;;7.00;5.00;;;;;;;23.12;31.18;97426.12;438151;1245;96601;-42
2023/04/24 10:53:19;;;;;;;6.70;4.30;;;;;;;23.35;31.70;97411.92;438122;1249;110376;-42
2023/04/24 11:23:57;;;;;;;5.50;4.40;;;;;;;23.71;29.68;97389.34;438076;1249;110439;-42
2023/04/24 11:34:07;;;;;;;9.90;4.90;;;;;;;23.47;28.98;97384.66;438178;1245;107798;-42
2023/04/24 11:44:21;;;;;;;6.40;4.70;;;;;;;23.45;30.21;97383.20;437845;1244;96610;-42
2023/04/24 11:54:29;;;;;;;6.50;4.30;;;;;;;23.49;30.53;97377.48;438053;1249;111178;-43
2023/04/24 12:14:58;;;;;;;195.30;17.00;;;;;;;23.11;31.28;97370.01;438114;1249;97886;-42
2023/04/24 12:25:03;;;;;;;10.50;5.80;;;;;;;22.56;33.12;97371.81;438099;1245;109891;-42
2023/04/24 12:35:11;;;;;;;6.40;5.70;;;;;;;22.02;35.15;97363.36;438263;1249;97855;-42
2023/04/24 12:45:23;;;;;;;85.80;11.80;;;;;;;21.62;36.48;97357.55;438111;1244;97552;-41
2023/04/24 12:55:30;;;;;;;10.20;5.90;;;;;;;21.11;37.49;97348.69;438112;1244;110324;-42
2023/04/24 13:05:37;;;;;;;35.90;6.70;;;;;;;20.70;38.16;97348.94;438083;1244;109384;-42
2023/04/24 13:15:45;;;;;;;9.80;6.30;;;;;;;20.32;38.79;97347.27;438226;1249;98519;-44
2023/04/24 13:25:57;;;;;;;31.30;7.30;;;;;;;19.87;39.45;97360.27;438095;1249;108837;-42
2023/04/24 13:36:04;;;;;;;11.80;6.10;;;;;;;19.59;39.91;97368.36;438255;1247;97884;-43
2023/04/24 13:56:18;;;;;;;15.10;8.40;;;;;;;18.82;41.90;97371.63;437999;1246;108474;-43
2023/04/24 14:06:26;;;;;;;7.70;6.50;;;;;;;18.57;42.45;97369.52;438114;1245;97464;-43
2023/04/24 14:16:33;;;;;;;9.50;7.40;;;;;;;18.35;43.53;97372.75;437730;1250;108013;-45
2023/04/24 14:26:40;;;;;;;9.60;7.60;;;;;;;18.29;44.34;97375.02;438113;1247;97136;-42
2023/04/24 14:36:47;;;;;;;11.40;7.80;;;;;;;18.20;44.40;97385.20;438240;1249;110878;-42
2023/04/24 14:46:55;;;;;;;11.50;6.80;;;;;;;18.14;44.00;97382.21;437810;1250;108940;-42
2023/04/24 15:07:08;;;;;;;8.80;8.00;;;;;;;17.80;45.60;97383.33;437926;1247;109315;-43
2023/04/24 15:17:15;;;;;;;9.90;8.10;;;;;;;17.72;46.11;97377.30;438107;1246;97443;-42
2023/04/24 15:27:23;;;;;;;10.00;8.30;;;;;;;17.80;46.36;97364.70;438138;1249;109730;-42
2023/04/24 15:37:30;;;;;;;9.60;7.90;;;;;;;17.83;46.34;97358.55;438152;1247;108428;-41
2023/04/24 15:47:37;;;;;;;13.00;7.80;;;;;;;17.72;46.67;97348.91;438037;1250;97865;-42
2023/04/24 15:57:47;;;;;;;9.70;7.90;;;;;;;17.61;46.82;97351.91;438143;1245;110474;-42
2023/04/24 16:07:55;;;;;;;10.30;8.00;;;;;;;17.43;47.12;97354.92;437990;1249;108571;-42
2023/04/24 16:18:02;;;;;;;10.90;7.50;;;;;;;17.28;47.60;97362.02;438124;1250;97463;-42
2023/04/24 16:28:10;;;;;;;12.40;9.20;;;;;;;17.24;47.84;97367.13;438069;1247;109633;-42
2023/04/24 16:38:18;;;;;;;23.50;15.50;;;;;;;16.92;48.43;97375.42;437959;1249;104676;-42
2023/04/24 16:48:25;;;;;;;10.00;8.00;;;;;;;16.66;48.81;97380.36;438036;1247;97225;-42
2023/04/24 16:58:32;;;;;;;9.50;8.20;;;;;;;16.41;49.55;97378.20;438119;1250;110731;-42
2023/04/24 17:08:40;;;;;;;10.60;8.80;;;;;;;16.22;49.87;97385.34;438127;1250;109647;-41
2023/04/24 17:18:47;;;;;;;10.40;7.00;;;;;;;15.83;50.46;97394.46;438094;1247;96558;-42
2023/04/24 17:28:54;;;;;;;10.00;8.30;;;;;;;15.63;50.92;97402.92;438107;1249;111358;-42
2023/04/24 17:39:02;;;;;;;12.70;8.40;;;;;;;15.45;51.38;97412.82;438203;1244;107858;-42
2023/04/24 17:49:09;;;;;;;16.90;10.50;;;;;;;15.28;51.94;97419.41;438131;1249;97172;-42
2023/04/24 17:59:17;;;;;;;14.80;11.60;;;;;;;15.05;52.74;97427.23;437922;1247;110552;-43
2023/04/24 18:09:24;;;;;;;21.20;12.20;;;;;;;14.93;53.31;97432.27;437892;1250;110658;-43
2023/04/24 18:19:32;;;;;;;15.90;13.60;;;;;;;14.79;53.88;97450.80;437993;1249;97858;-42
2023/04/24 18:29:39;;;;;;;18.10;12.80;;;;;;;14.50;54.93;97465.35;437978;1250;111419;-43
2023/04/24 18:39:46;;;;;;;19.80;13.20;;;;;;;14.36;56.16;97467.86;438125;1249;107881;-41
2023/04/24 18:49:53;;;;;;;15.80;13.80;;;;;;;14.14;57.03;97481.96;438102;1260;97587;-42
2023/04/24 19:00:00;;;;;;;21.20;16.10;;;;;;;13.86;57.90;97490.38;437975;1247;110514;-42
2023/04/24 19:10:08;;;;;;;20.40;15.40;;;;;;;13.53;58.98;97497.71;437997;1250;107662;-41
2023/04/24 19:20:15;;;;;;;26.40;17.10;;;;;;;13.48;60.00;97499.64;437895;1250;97457;-41
2023/04/24 19:30:22;;;;;;;19.40;16.00;;;;;;;13.42;60.61;97503.71;437989;1250;109617;-42
2023/04/24 19:40:29;;;;;;;22.60;17.30;;;;;;;13.38;61.54;97504.64;438069;1244;108561;-44
2023/04/24 19:50:35;;;;;;;26.30;20.20;;;;;;;13.30;62.24;97498.85;438073;1249;97740;-42
2023/04/24 20:00:42;;;;;;;24.50;19.80;;;;;;;13.22;62.72;97505.46;438153;1250;108702;-42
2023/04/24 20:10:51;;;;;;;22.70;18.40;;;;;;;13.17;63.14;97508.27;437840;1249;97871;-42
2023/04/24 20:20:58;;;;;;;24.00;19.70;;;;;;;13.14;63.84;97512.11;437907;1250;109997;-42
2023/04/24 20:31:06;;;;;;;29.70;21.10;;;;;;;13.01;64.26;97506.56;438018;1258;107413;-42
2023/04/24 20:41:14;;;;;;;26.80;22.40;;;;;;;12.82;65.18;97504.36;438291;1250;97878;-41
2023/04/24 20:51:22;;;;;;;28.60;20.40;;;;;;;12.58;65.65;97504.89;437933;1244;109422;-41
2023/04/24 21:11:36;;;;;;;24.60;18.20;;;;;;;12.22;67.45;97502.80;438126;1250;97467;-42
2023/04/24 21:21:43;;;;;;;15.30;10.70;;;;;;;12.23;68.27;97513.72;438110;1250;110435;-42
2023/04/24 21:31:52;;;;;;;12.50;9.30;;;;;;;12.10;68.58;97518.98;438048;1251;107794;-41
2023/04/24 21:41:59;;;;;;;6.90;4.90;;;;;;;11.88;69.52;97523.86;438037;1250;97885;-42
2023/04/24 22:02:12;;;;;;;3.60;3.00;;;;;;;11.38;70.90;97536.27;438111;1249;97864;-40
2023/04/24 22:12:20;;;;;;;2.10;1.90;;;;;;;11.19;71.11;97540.28;438125;1250;110685;-41
2023/04/24 22:22:28;;;;;;;3.70;2.10;;;;;;;11.03;71.69;97539.27;437835;1251;108019;-42
2023/04/24 22:32:35;;;;;;;4.50;2.50;;;;;;;10.99;72.10;97538.56;437829;1251;97874;-43
2023/04/24 22:42:41;;;;;;;2.60;2.40;;;;;;;11.01;72.25;97534.18;438043;1244;108140;-41
2023/04/24 22:52:51;;;;;;;2.90;2.40;;;;;;;11.02;72.27;97534.19;438107;1258;96669;-43
2023/04/24 23:02:58;;;;;;;5.30;2.30;;;;;;;10.97;72.38;97535.33;438086;1244;110909;-42
2023/04/24 23:13:05;;;;;;;3.40;1.90;;;;;;;10.93;72.77;97535.21;438140;1244;106805;-41
2023/04/24 23:23:14;;;;;;;5.20;3.30;;;;;;;10.85;73.04;97531.84;438054;1250;99094;-41
2023/04/24 23:33:21;;;;;;;;;;;;;;;10.72;73.15;97532.48;438081;1250;109732;-42
2023/04/24 23:43:27;;;;;;;6.30;4.70;;;;;;;10.57;73.49;97524.08;437922;1251;99221;-42
2023/04/24 23:53:34;;;;;;;7.20;4.60;;;;;;;10.53;73.75;97515.18;437945;1244;110952;-42
